sensor_id;sensor_type;location;lat;lon;timestamp;P1;durP1;ratioP1;P2;durP2;ratioP2
24159;SDS011;62385;41.594;23.808;2022-07-29T00:02:12;15.82;;;13.52;;
24159;SDS011;62385;41.594;23.808;2022-07-29T00:04:38;18.75;;;13.68;;
24159;SDS011;62385;41.594;23.808;2022-07-29T00:07:04;15.10;;;13.50;;
24159;SDS011;62385;41.594;23.808;2022-07-29T00:09:30;14.32;;;12.82;;
24159;SDS011;62385;41.594;23.808;2022-07-29T00:11:59;15.32;;;12.80;;
24159;SDS011;62385;41.594;23.808;2022-07-29T00:14:25;16.10;;;13.63;;
24159;SDS011;62385;41.594;23.808;2022-07-29T00:16:52;15.10;;;13.15;;
24159;SDS011;62385;41.594;23.808;2022-07-29T00:19:17;16.40;;;13.63;;
24159;SDS011;62385;41.594;23.808;2022-07-29T00:21:43;16.83;;;12.63;;
24159;SDS011;62385;41.594;23.808;2022-07-29T00:24:08;14.98;;;12.77;;
24159;SDS011;62385;41.594;23.808;2022-07-29T00:26:34;14.48;;;12.98;;
24159;SDS011;62385;41.594;23.808;2022-07-29T00:29:00;15.65;;;12.93;;
24159;SDS011;62385;41.594;23.808;2022-07-29T00:31:27;15.35;;;13.50;;
24159;SDS011;62385;41.594;23.808;2022-07-29T00:33:53;13.48;;;12.07;;
24159;SDS011;62385;41.594;23.808;2022-07-29T00:36:19;13.48;;;12.05;;
24159;SDS011;62385;41.594;23.808;2022-07-29T00:38:47;13.57;;;12.20;;
24159;SDS011;62385;41.594;23.808;2022-07-29T00:41:14;14.45;;;13.00;;
24159;SDS011;62385;41.594;23.808;2022-07-29T00:43:40;15.63;;;13.10;;
24159;SDS011;62385;41.594;23.808;2022-07-29T00:46:06;14.73;;;12.63;;
24159;SDS011;62385;41.594;23.808;2022-07-29T00:48:32;16.85;;;13.05;;
24159;SDS011;62385;41.594;23.808;2022-07-29T00:50:58;19.17;;;11.55;;
24159;SDS011;62385;41.594;23.808;2022-07-29T00:53:26;14.77;;;12.60;;
24159;SDS011;62385;41.594;23.808;2022-07-29T00:55:53;13.02;;;11.60;;
24159;SDS011;62385;41.594;23.808;2022-07-29T00:58:20;14.48;;;11.93;;
24159;SDS011;62385;41.594;23.808;2022-07-29T01:01:05;13.38;;;11.88;;
24159;SDS011;62385;41.594;23.808;2022-07-29T01:03:30;13.65;;;11.98;;
24159;SDS011;62385;41.594;23.808;2022-07-29T01:05:56;16.10;;;12.38;;
24159;SDS011;62385;41.594;23.808;2022-07-29T01:08:23;15.27;;;11.95;;
24159;SDS011;62385;41.594;23.808;2022-07-29T01:10:49;15.20;;;12.07;;
24159;SDS011;62385;41.594;23.808;2022-07-29T01:13:17;13.52;;;12.13;;
24159;SDS011;62385;41.594;23.808;2022-07-29T01:15:44;12.45;;;11.18;;
24159;SDS011;62385;41.594;23.808;2022-07-29T01:18:30;13.35;;;11.93;;
24159;SDS011;62385;41.594;23.808;2022-07-29T01:27:04;15.65;;;11.50;;
24159;SDS011;62385;41.594;23.808;2022-07-29T01:32:14;14.02;;;12.00;;
24159;SDS011;62385;41.594;23.808;2022-07-29T01:34:52;13.93;;;11.18;;
24159;SDS011;62385;41.594;23.808;2022-07-29T01:37:26;13.18;;;11.80;;
24159;SDS011;62385;41.594;23.808;2022-07-29T01:39:57;15.10;;;12.55;;
24159;SDS011;62385;41.594;23.808;2022-07-29T01:42:44;13.52;;;12.15;;
24159;SDS011;62385;41.594;23.808;2022-07-29T01:45:33;17.20;;;12.05;;
24159;SDS011;62385;41.594;23.808;2022-07-29T01:48:11;14.63;;;12.00;;
24159;SDS011;62385;41.594;23.808;2022-07-29T01:50:52;16.85;;;11.30;;
24159;SDS011;62385;41.594;23.808;2022-07-29T01:53:32;14.43;;;11.25;;
24159;SDS011;62385;41.594;23.808;2022-07-29T01:56:01;17.90;;;11.77;;
24159;SDS011;62385;41.594;23.808;2022-07-29T01:58:28;17.35;;;12.57;;
24159;SDS011;62385;41.594;23.808;2022-07-29T02:00:58;20.42;;;12.27;;
24159;SDS011;62385;41.594;23.808;2022-07-29T02:03:25;13.45;;;12.05;;
24159;SDS011;62385;41.594;23.808;2022-07-29T02:05:53;14.15;;;11.85;;
24159;SDS011;62385;41.594;23.808;2022-07-29T02:08:21;12.55;;;11.20;;
24159;SDS011;62385;41.594;23.808;2022-07-29T02:10:50;13.63;;;10.95;;
24159;SDS011;62385;41.594;23.808;2022-07-29T02:13:17;13.38;;;11.98;;
24159;SDS011;62385;41.594;23.808;2022-07-29T02:15:44;14.73;;;11.65;;
24159;SDS011;62385;41.594;23.808;2022-07-29T02:18:17;13.25;;;11.80;;
24159;SDS011;62385;41.594;23.808;2022-07-29T02:20:50;13.32;;;11.65;;
24159;SDS011;62385;41.594;23.808;2022-07-29T02:23:20;14.85;;;11.65;;
24159;SDS011;62385;41.594;23.808;2022-07-29T02:25:54;15.68;;;12.57;;
24159;SDS011;62385;41.594;23.808;2022-07-29T02:28:22;14.95;;;11.15;;
24159;SDS011;62385;41.594;23.808;2022-07-29T02:30:51;12.77;;;11.00;;
24159;SDS011;62385;41.594;23.808;2022-07-29T02:33:18;15.52;;;12.10;;
24159;SDS011;62385;41.594;23.808;2022-07-29T02:35:47;12.43;;;11.13;;
24159;SDS011;62385;41.594;23.808;2022-07-29T02:38:14;13.25;;;10.93;;
24159;SDS011;62385;41.594;23.808;2022-07-29T02:41:04;16.75;;;11.52;;
24159;SDS011;62385;41.594;23.808;2022-07-29T02:43:34;12.07;;;10.82;;
24159;SDS011;62385;41.594;23.808;2022-07-29T02:46:01;15.90;;;12.20;;
24159;SDS011;62385;41.594;23.808;2022-07-29T02:48:41;15.75;;;12.25;;
24159;SDS011;62385;41.594;23.808;2022-07-29T02:51:25;15.32;;;11.80;;
24159;SDS011;62385;41.594;23.808;2022-07-29T02:53:56;14.75;;;11.48;;
24159;SDS011;62385;41.594;23.808;2022-07-29T02:56:27;15.18;;;11.70;;
24159;SDS011;62385;41.594;23.808;2022-07-29T02:59:01;13.02;;;11.70;;
24159;SDS011;62385;41.594;23.808;2022-07-29T03:01:31;12.90;;;11.48;;
24159;SDS011;62385;41.594;23.808;2022-07-29T03:04:00;13.48;;;12.07;;
24159;SDS011;62385;41.594;23.808;2022-07-29T03:06:29;16.40;;;11.65;;
24159;SDS011;62385;41.594;23.808;2022-07-29T03:08:57;14.05;;;11.20;;
24159;SDS011;62385;41.594;23.808;2022-07-29T03:11:24;13.25;;;11.27;;
24159;SDS011;62385;41.594;23.808;2022-07-29T03:13:50;17.50;;;11.43;;
24159;SDS011;62385;41.594;23.808;2022-07-29T03:16:18;15.60;;;11.48;;
24159;SDS011;62385;41.594;23.808;2022-07-29T03:18:45;15.23;;;12.13;;
24159;SDS011;62385;41.594;23.808;2022-07-29T03:21:11;12.88;;;11.57;;
24159;SDS011;62385;41.594;23.808;2022-07-29T03:23:37;13.52;;;11.52;;
24159;SDS011;62385;41.594;23.808;2022-07-29T03:26:08;14.95;;;13.45;;
24159;SDS011;62385;41.594;23.808;2022-07-29T03:28:34;15.93;;;14.07;;
24159;SDS011;62385;41.594;23.808;2022-07-29T03:31:00;39.05;;;22.45;;
24159;SDS011;62385;41.594;23.808;2022-07-29T03:33:25;25.35;;;21.05;;
24159;SDS011;62385;41.594;23.808;2022-07-29T03:35:51;30.00;;;21.42;;
24159;SDS011;62385;41.594;23.808;2022-07-29T03:38:17;23.05;;;17.98;;
24159;SDS011;62385;41.594;23.808;2022-07-29T03:40:47;20.10;;;15.25;;
24159;SDS011;62385;41.594;23.808;2022-07-29T03:43:18;19.05;;;13.65;;
24159;SDS011;62385;41.594;23.808;2022-07-29T03:45:45;15.52;;;13.65;;
24159;SDS011;62385;41.594;23.808;2022-07-29T03:48:15;15.70;;;12.65;;
24159;SDS011;62385;41.594;23.808;2022-07-29T03:50:42;17.73;;;13.93;;
24159;SDS011;62385;41.594;23.808;2022-07-29T03:53:09;19.20;;;13.43;;
24159;SDS011;62385;41.594;23.808;2022-07-29T03:55:45;15.80;;;12.48;;
24159;SDS011;62385;41.594;23.808;2022-07-29T03:58:13;13.48;;;11.85;;
24159;SDS011;62385;41.594;23.808;2022-07-29T04:00:40;16.30;;;12.90;;
24159;SDS011;62385;41.594;23.808;2022-07-29T04:03:07;18.20;;;11.57;;
24159;SDS011;62385;41.594;23.808;2022-07-29T04:05:33;18.50;;;12.85;;
24159;SDS011;62385;41.594;23.808;2022-07-29T04:07:59;16.75;;;12.85;;
24159;SDS011;62385;41.594;23.808;2022-07-29T04:10:25;19.98;;;13.57;;
24159;SDS011;62385;41.594;23.808;2022-07-29T04:12:50;16.73;;;13.57;;
24159;SDS011;62385;41.594;23.808;2022-07-29T04:15:16;14.27;;;12.75;;
24159;SDS011;62385;41.594;23.808;2022-07-29T04:17:42;15.68;;;12.75;;
24159;SDS011;62385;41.594;23.808;2022-07-29T04:20:08;18.35;;;12.60;;
24159;SDS011;62385;41.594;23.808;2022-07-29T04:22:34;13.43;;;11.95;;
24159;SDS011;62385;41.594;23.808;2022-07-29T04:24:59;14.82;;;12.32;;
24159;SDS011;62385;41.594;23.808;2022-07-29T04:27:26;15.38;;;12.15;;
24159;SDS011;62385;41.594;23.808;2022-07-29T04:29:52;15.38;;;11.90;;
24159;SDS011;62385;41.594;23.808;2022-07-29T04:32:19;14.45;;;11.88;;
24159;SDS011;62385;41.594;23.808;2022-07-29T04:34:44;16.88;;;12.10;;
24159;SDS011;62385;41.594;23.808;2022-07-29T04:37:11;15.27;;;12.02;;
24159;SDS011;62385;41.594;23.808;2022-07-29T04:39:37;13.25;;;11.88;;
24159;SDS011;62385;41.594;23.808;2022-07-29T04:42:04;15.10;;;13.48;;
24159;SDS011;62385;41.594;23.808;2022-07-29T04:44:29;17.58;;;13.13;;
24159;SDS011;62385;41.594;23.808;2022-07-29T04:46:56;15.82;;;13.07;;
24159;SDS011;62385;41.594;23.808;2022-07-29T04:49:22;15.77;;;12.75;;
24159;SDS011;62385;41.594;23.808;2022-07-29T04:51:48;15.60;;;12.45;;
24159;SDS011;62385;41.594;23.808;2022-07-29T04:54:14;14.35;;;12.50;;
24159;SDS011;62385;41.594;23.808;2022-07-29T04:56:39;15.50;;;13.38;;
24159;SDS011;62385;41.594;23.808;2022-07-29T04:59:05;14.82;;;13.05;;
24159;SDS011;62385;41.594;23.808;2022-07-29T05:01:30;16.88;;;12.93;;
24159;SDS011;62385;41.594;23.808;2022-07-29T05:03:56;18.52;;;12.73;;
24159;SDS011;62385;41.594;23.808;2022-07-29T05:06:21;17.70;;;13.55;;
24159;SDS011;62385;41.594;23.808;2022-07-29T05:08:47;14.43;;;12.93;;
24159;SDS011;62385;41.594;23.808;2022-07-29T05:11:12;16.73;;;12.95;;
24159;SDS011;62385;41.594;23.808;2022-07-29T05:13:38;15.40;;;13.80;;
24159;SDS011;62385;41.594;23.808;2022-07-29T05:16:04;16.98;;;13.63;;
24159;SDS011;62385;41.594;23.808;2022-07-29T05:18:30;14.32;;;12.82;;
24159;SDS011;62385;41.594;23.808;2022-07-29T05:20:55;17.30;;;13.63;;
24159;SDS011;62385;41.594;23.808;2022-07-29T05:23:21;15.85;;;13.70;;
24159;SDS011;62385;41.594;23.808;2022-07-29T05:25:47;14.25;;;12.75;;
24159;SDS011;62385;41.594;23.808;2022-07-29T05:28:12;16.05;;;14.18;;
24159;SDS011;62385;41.594;23.808;2022-07-29T05:30:39;17.75;;;12.48;;
24159;SDS011;62385;41.594;23.808;2022-07-29T05:33:05;13.98;;;12.57;;
24159;SDS011;62385;41.594;23.808;2022-07-29T05:35:30;17.02;;;13.00;;
24159;SDS011;62385;41.594;23.808;2022-07-29T05:37:56;15.25;;;13.38;;
24159;SDS011;62385;41.594;23.808;2022-07-29T05:40:21;15.25;;;12.95;;
24159;SDS011;62385;41.594;23.808;2022-07-29T05:42:47;12.70;;;11.40;;
24159;SDS011;62385;41.594;23.808;2022-07-29T05:45:31;13.35;;;11.95;;
24159;SDS011;62385;41.594;23.808;2022-07-29T05:47:58;17.83;;;12.18;;
24159;SDS011;62385;41.594;23.808;2022-07-29T05:50:23;13.55;;;12.10;;
24159;SDS011;62385;41.594;23.808;2022-07-29T05:52:49;16.95;;;12.95;;
24159;SDS011;62385;41.594;23.808;2022-07-29T05:55:15;19.00;;;12.95;;
24159;SDS011;62385;41.594;23.808;2022-07-29T05:57:41;13.80;;;12.27;;
24159;SDS011;62385;41.594;23.808;2022-07-29T06:00:08;15.98;;;12.30;;
24159;SDS011;62385;41.594;23.808;2022-07-29T06:02:53;17.35;;;12.50;;
24159;SDS011;62385;41.594;23.808;2022-07-29T06:05:20;15.43;;;12.43;;
24159;SDS011;62385;41.594;23.808;2022-07-29T06:07:45;13.55;;;11.63;;
24159;SDS011;62385;41.594;23.808;2022-07-29T06:10:11;15.07;;;12.20;;
24159;SDS011;62385;41.594;23.808;2022-07-29T06:12:36;14.00;;;11.90;;
24159;SDS011;62385;41.594;23.808;2022-07-29T06:15:02;17.63;;;12.43;;
24159;SDS011;62385;41.594;23.808;2022-07-29T06:17:28;16.52;;;11.95;;
24159;SDS011;62385;41.594;23.808;2022-07-29T06:19:54;16.20;;;11.32;;
24159;SDS011;62385;41.594;23.808;2022-07-29T06:22:19;17.83;;;12.00;;
24159;SDS011;62385;41.594;23.808;2022-07-29T06:24:45;13.77;;;11.63;;
24159;SDS011;62385;41.594;23.808;2022-07-29T06:27:11;13.23;;;11.70;;
24159;SDS011;62385;41.594;23.808;2022-07-29T06:29:36;16.13;;;11.85;;
24159;SDS011;62385;41.594;23.808;2022-07-29T06:32:03;14.98;;;11.70;;
24159;SDS011;62385;41.594;23.808;2022-07-29T06:34:29;22.60;;;12.98;;
24159;SDS011;62385;41.594;23.808;2022-07-29T06:36:54;15.27;;;12.93;;
24159;SDS011;62385;41.594;23.808;2022-07-29T06:39:21;15.15;;;12.90;;
24159;SDS011;62385;41.594;23.808;2022-07-29T06:41:50;15.88;;;12.50;;
24159;SDS011;62385;41.594;23.808;2022-07-29T06:44:16;12.93;;;11.45;;
24159;SDS011;62385;41.594;23.808;2022-07-29T06:46:42;13.52;;;11.27;;
24159;SDS011;62385;41.594;23.808;2022-07-29T06:49:09;12.95;;;11.70;;
24159;SDS011;62385;41.594;23.808;2022-07-29T06:51:35;18.63;;;12.48;;
24159;SDS011;62385;41.594;23.808;2022-07-29T06:54:02;16.23;;;12.38;;
24159;SDS011;62385;41.594;23.808;2022-07-29T06:56:30;19.88;;;12.38;;
24159;SDS011;62385;41.594;23.808;2022-07-29T06:59:16;15.70;;;12.20;;
24159;SDS011;62385;41.594;23.808;2022-07-29T07:01:42;12.60;;;11.32;;
24159;SDS011;62385;41.594;23.808;2022-07-29T07:04:08;12.15;;;10.93;;
24159;SDS011;62385;41.594;23.808;2022-07-29T07:06:36;13.15;;;11.50;;
24159;SDS011;62385;41.594;23.808;2022-07-29T07:09:02;12.55;;;11.35;;
24159;SDS011;62385;41.594;23.808;2022-07-29T07:11:28;13.35;;;11.52;;
24159;SDS011;62385;41.594;23.808;2022-07-29T07:13:53;17.77;;;11.90;;
24159;SDS011;62385;41.594;23.808;2022-07-29T07:16:19;16.00;;;11.32;;
24159;SDS011;62385;41.594;23.808;2022-07-29T07:18:45;14.40;;;11.05;;
24159;SDS011;62385;41.594;23.808;2022-07-29T07:21:11;15.65;;;12.05;;
24159;SDS011;62385;41.594;23.808;2022-07-29T07:23:36;13.50;;;11.32;;
24159;SDS011;62385;41.594;23.808;2022-07-29T07:26:02;13.98;;;11.25;;
24159;SDS011;62385;41.594;23.808;2022-07-29T07:28:28;16.75;;;12.55;;
24159;SDS011;62385;41.594;23.808;2022-07-29T07:30:55;13.10;;;11.70;;
24159;SDS011;62385;41.594;23.808;2022-07-29T07:33:20;13.57;;;12.18;;
24159;SDS011;62385;41.594;23.808;2022-07-29T07:35:46;12.68;;;11.48;;
24159;SDS011;62385;41.594;23.808;2022-07-29T07:38:12;15.90;;;11.50;;
24159;SDS011;62385;41.594;23.808;2022-07-29T07:40:37;16.92;;;12.43;;
24159;SDS011;62385;41.594;23.808;2022-07-29T07:43:03;12.85;;;11.25;;
24159;SDS011;62385;41.594;23.808;2022-07-29T07:45:30;12.13;;;10.98;;
24159;SDS011;62385;41.594;23.808;2022-07-29T07:47:57;16.08;;;11.90;;
24159;SDS011;62385;41.594;23.808;2022-07-29T07:50:23;15.05;;;11.07;;
24159;SDS011;62385;41.594;23.808;2022-07-29T07:52:53;12.60;;;11.10;;
24159;SDS011;62385;41.594;23.808;2022-07-29T07:55:22;12.57;;;10.80;;
24159;SDS011;62385;41.594;23.808;2022-07-29T07:57:48;12.75;;;11.45;;
24159;SDS011;62385;41.594;23.808;2022-07-29T08:00:15;13.27;;;10.93;;
24159;SDS011;62385;41.594;23.808;2022-07-29T08:02:41;16.92;;;11.05;;
24159;SDS011;62385;41.594;23.808;2022-07-29T08:05:08;13.27;;;11.88;;
24159;SDS011;62385;41.594;23.808;2022-07-29T08:07:34;13.13;;;11.48;;
24159;SDS011;62385;41.594;23.808;2022-07-29T08:10:00;17.15;;;11.80;;
24159;SDS011;62385;41.594;23.808;2022-07-29T08:12:26;16.00;;;11.65;;
24159;SDS011;62385;41.594;23.808;2022-07-29T08:14:52;13.10;;;11.43;;
24159;SDS011;62385;41.594;23.808;2022-07-29T08:17:17;19.42;;;11.95;;
24159;SDS011;62385;41.594;23.808;2022-07-29T08:19:44;18.52;;;11.27;;
24159;SDS011;62385;41.594;23.808;2022-07-29T08:22:09;12.95;;;10.85;;
24159;SDS011;62385;41.594;23.808;2022-07-29T08:24:35;15.32;;;11.60;;
24159;SDS011;62385;41.594;23.808;2022-07-29T08:27:33;14.38;;;11.93;;
24159;SDS011;62385;41.594;23.808;2022-07-29T08:29:59;12.35;;;10.93;;
24159;SDS011;62385;41.594;23.808;2022-07-29T08:32:24;14.38;;;11.45;;
24159;SDS011;62385;41.594;23.808;2022-07-29T08:34:50;13.88;;;11.43;;
24159;SDS011;62385;41.594;23.808;2022-07-29T08:37:16;14.95;;;11.70;;
24159;SDS011;62385;41.594;23.808;2022-07-29T08:39:42;12.68;;;11.25;;
24159;SDS011;62385;41.594;23.808;2022-07-29T08:42:07;16.60;;;11.40;;
24159;SDS011;62385;41.594;23.808;2022-07-29T08:44:34;16.67;;;12.20;;
24159;SDS011;62385;41.594;23.808;2022-07-29T08:47:00;13.82;;;10.90;;
24159;SDS011;62385;41.594;23.808;2022-07-29T08:49:26;14.75;;;11.45;;
24159;SDS011;62385;41.594;23.808;2022-07-29T08:51:53;13.82;;;12.40;;
24159;SDS011;62385;41.594;23.808;2022-07-29T08:54:19;15.30;;;11.63;;
24159;SDS011;62385;41.594;23.808;2022-07-29T08:56:50;15.10;;;11.13;;
24159;SDS011;62385;41.594;23.808;2022-07-29T08:59:20;14.15;;;11.55;;
24159;SDS011;62385;41.594;23.808;2022-07-29T09:01:51;13.50;;;11.15;;
24159;SDS011;62385;41.594;23.808;2022-07-29T09:04:18;14.60;;;11.02;;
24159;SDS011;62385;41.594;23.808;2022-07-29T09:06:47;15.65;;;11.43;;
24159;SDS011;62385;41.594;23.808;2022-07-29T09:09:14;13.05;;;10.48;;
24159;SDS011;62385;41.594;23.808;2022-07-29T09:11:40;14.60;;;11.30;;
24159;SDS011;62385;41.594;23.808;2022-07-29T09:14:07;15.05;;;9.45;;
24159;SDS011;62385;41.594;23.808;2022-07-29T09:21:50;13.52;;;8.93;;
24159;SDS011;62385;41.594;23.808;2022-07-29T09:27:01;9.10;;;8.15;;
24159;SDS011;62385;41.594;23.808;2022-07-29T09:29:26;10.30;;;8.68;;
24159;SDS011;62385;41.594;23.808;2022-07-29T09:31:54;11.18;;;9.18;;
24159;SDS011;62385;41.594;23.808;2022-07-29T09:34:24;13.80;;;9.40;;
24159;SDS011;62385;41.594;23.808;2022-07-29T09:36:53;10.40;;;8.65;;
24159;SDS011;62385;41.594;23.808;2022-07-29T09:39:27;11.35;;;8.15;;
24159;SDS011;62385;41.594;23.808;2022-07-29T09:41:56;9.48;;;7.97;;
24159;SDS011;62385;41.594;23.808;2022-07-29T09:44:25;10.95;;;8.48;;
24159;SDS011;62385;41.594;23.808;2022-07-29T09:46:55;8.90;;;7.78;;
24159;SDS011;62385;41.594;23.808;2022-07-29T09:49:23;11.18;;;8.05;;
24159;SDS011;62385;41.594;23.808;2022-07-29T09:55:07;9.25;;;8.23;;
24159;SDS011;62385;41.594;23.808;2022-07-29T09:57:33;10.10;;;8.32;;
24159;SDS011;62385;41.594;23.808;2022-07-29T10:00:09;9.90;;;8.50;;
24159;SDS011;62385;41.594;23.808;2022-07-29T10:02:40;9.70;;;8.43;;
24159;SDS011;62385;41.594;23.808;2022-07-29T10:05:22;8.65;;;7.85;;
24159;SDS011;62385;41.594;23.808;2022-07-29T10:07:51;10.02;;;8.48;;
24159;SDS011;62385;41.594;23.808;2022-07-29T10:10:23;8.90;;;8.00;;
24159;SDS011;62385;41.594;23.808;2022-07-29T10:12:55;9.45;;;8.20;;
24159;SDS011;62385;41.594;23.808;2022-07-29T10:15:27;12.00;;;8.18;;
24159;SDS011;62385;41.594;23.808;2022-07-29T10:17:55;9.60;;;8.20;;
24159;SDS011;62385;41.594;23.808;2022-07-29T10:20:21;9.38;;;8.15;;
24159;SDS011;62385;41.594;23.808;2022-07-29T10:22:49;9.18;;;8.25;;
24159;SDS011;62385;41.594;23.808;2022-07-29T10:25:16;9.65;;;8.40;;
24159;SDS011;62385;41.594;23.808;2022-07-29T10:27:45;8.90;;;8.00;;
24159;SDS011;62385;41.594;23.808;2022-07-29T10:30:31;9.02;;;7.50;;
24159;SDS011;62385;41.594;23.808;2022-07-29T10:35:53;9.63;;;8.02;;
24159;SDS011;62385;41.594;23.808;2022-07-29T10:43:58;7.97;;;7.18;;
24159;SDS011;62385;41.594;23.808;2022-07-29T10:46:45;8.73;;;6.50;;
24159;SDS011;62385;41.594;23.808;2022-07-29T10:49:12;7.97;;;7.10;;
24159;SDS011;62385;41.594;23.808;2022-07-29T10:52:02;11.38;;;7.05;;
24159;SDS011;62385;41.594;23.808;2022-07-29T11:07:35;6.90;;;5.75;;
24159;SDS011;62385;41.594;23.808;2022-07-29T11:15:11;11.13;;;5.70;;
24159;SDS011;62385;41.594;23.808;2022-07-29T11:29:16;6.45;;;5.40;;
24159;SDS011;62385;41.594;23.808;2022-07-29T11:31:46;5.70;;;4.97;;
24159;SDS011;62385;41.594;23.808;2022-07-29T11:34:20;6.53;;;5.00;;
24159;SDS011;62385;41.594;23.808;2022-07-29T11:39:40;5.40;;;4.90;;
24159;SDS011;62385;41.594;23.808;2022-07-29T11:45:00;6.65;;;5.15;;
24159;SDS011;62385;41.594;23.808;2022-07-29T11:47:33;6.95;;;5.63;;
24159;SDS011;62385;41.594;23.808;2022-07-29T11:50:07;9.27;;;5.32;;
24159;SDS011;62385;41.594;23.808;2022-07-29T11:55:04;5.93;;;5.10;;
24159;SDS011;62385;41.594;23.808;2022-07-29T11:57:31;6.05;;;4.60;;
24159;SDS011;62385;41.594;23.808;2022-07-29T11:59:59;6.72;;;4.90;;
24159;SDS011;62385;41.594;23.808;2022-07-29T12:02:25;6.28;;;5.30;;
24159;SDS011;62385;41.594;23.808;2022-07-29T12:05:04;5.05;;;4.65;;
24159;SDS011;62385;41.594;23.808;2022-07-29T12:07:30;6.43;;;5.47;;
24159;SDS011;62385;41.594;23.808;2022-07-29T12:09:58;6.68;;;5.18;;
24159;SDS011;62385;41.594;23.808;2022-07-29T12:12:24;8.13;;;5.25;;
24159;SDS011;62385;41.594;23.808;2022-07-29T12:14:50;6.05;;;4.90;;
24159;SDS011;62385;41.594;23.808;2022-07-29T12:17:29;6.43;;;4.95;;
24159;SDS011;62385;41.594;23.808;2022-07-29T12:19:57;6.65;;;5.05;;
24159;SDS011;62385;41.594;23.808;2022-07-29T12:22:31;5.63;;;4.75;;
24159;SDS011;62385;41.594;23.808;2022-07-29T12:25:03;9.38;;;5.78;;
24159;SDS011;62385;41.594;23.808;2022-07-29T12:27:34;6.97;;;5.20;;
24159;SDS011;62385;41.594;23.808;2022-07-29T12:30:12;7.75;;;5.30;;
24159;SDS011;62385;41.594;23.808;2022-07-29T12:32:49;5.80;;;5.20;;
24159;SDS011;62385;41.594;23.808;2022-07-29T12:35:18;6.18;;;5.47;;
24159;SDS011;62385;41.594;23.808;2022-07-29T12:37:47;13.40;;;5.38;;
24159;SDS011;62385;41.594;23.808;2022-07-29T12:40:15;7.55;;;6.35;;
24159;SDS011;62385;41.594;23.808;2022-07-29T12:45:37;8.27;;;6.63;;
24159;SDS011;62385;41.594;23.808;2022-07-29T12:48:04;7.45;;;6.65;;
24159;SDS011;62385;41.594;23.808;2022-07-29T12:50:31;7.20;;;6.22;;
24159;SDS011;62385;41.594;23.808;2022-07-29T12:53:10;8.07;;;6.50;;
24159;SDS011;62385;41.594;23.808;2022-07-29T12:55:38;9.43;;;5.57;;
24159;SDS011;62385;41.594;23.808;2022-07-29T13:01:07;11.77;;;6.65;;
24159;SDS011;62385;41.594;23.808;2022-07-29T13:03:58;7.20;;;6.40;;
24159;SDS011;62385;41.594;23.808;2022-07-29T13:06:43;7.18;;;6.47;;
24159;SDS011;62385;41.594;23.808;2022-07-29T13:09:11;7.07;;;6.25;;
24159;SDS011;62385;41.594;23.808;2022-07-29T13:11:46;7.85;;;6.88;;
24159;SDS011;62385;41.594;23.808;2022-07-29T13:14:29;9.45;;;6.53;;
24159;SDS011;62385;41.594;23.808;2022-07-29T13:17:00;9.20;;;6.50;;
24159;SDS011;62385;41.594;23.808;2022-07-29T13:22:02;8.38;;;6.55;;
24159;SDS011;62385;41.594;23.808;2022-07-29T13:24:27;7.97;;;6.35;;
24159;SDS011;62385;41.594;23.808;2022-07-29T13:26:53;9.85;;;7.20;;
24159;SDS011;62385;41.594;23.808;2022-07-29T13:29:18;8.18;;;7.07;;
24159;SDS011;62385;41.594;23.808;2022-07-29T13:31:44;7.63;;;6.82;;
24159;SDS011;62385;41.594;23.808;2022-07-29T13:34:09;8.07;;;6.55;;
24159;SDS011;62385;41.594;23.808;2022-07-29T13:36:36;7.45;;;6.75;;
24159;SDS011;62385;41.594;23.808;2022-07-29T13:39:01;7.45;;;6.60;;
24159;SDS011;62385;41.594;23.808;2022-07-29T13:41:28;7.65;;;6.75;;
24159;SDS011;62385;41.594;23.808;2022-07-29T13:43:54;8.75;;;6.53;;
24159;SDS011;62385;41.594;23.808;2022-07-29T13:46:20;8.50;;;6.50;;
24159;SDS011;62385;41.594;23.808;2022-07-29T13:48:45;8.57;;;6.55;;
24159;SDS011;62385;41.594;23.808;2022-07-29T13:51:11;8.13;;;6.75;;
24159;SDS011;62385;41.594;23.808;2022-07-29T13:53:37;6.80;;;6.20;;
24159;SDS011;62385;41.594;23.808;2022-07-29T13:56:03;8.73;;;6.70;;
24159;SDS011;62385;41.594;23.808;2022-07-29T13:58:31;6.50;;;5.90;;
24159;SDS011;62385;41.594;23.808;2022-07-29T14:00:59;7.70;;;6.43;;
24159;SDS011;62385;41.594;23.808;2022-07-29T14:03:24;7.68;;;6.70;;
24159;SDS011;62385;41.594;23.808;2022-07-29T14:19:42;8.77;;;7.15;;
24159;SDS011;62385;41.594;23.808;2022-07-29T14:22:08;7.32;;;6.63;;
24159;SDS011;62385;41.594;23.808;2022-07-29T14:24:34;7.72;;;6.97;;
24159;SDS011;62385;41.594;23.808;2022-07-29T14:27:00;9.05;;;7.07;;
24159;SDS011;62385;41.594;23.808;2022-07-29T14:29:26;7.60;;;6.55;;
24159;SDS011;62385;41.594;23.808;2022-07-29T14:31:52;7.68;;;6.88;;
24159;SDS011;62385;41.594;23.808;2022-07-29T14:34:17;8.10;;;6.28;;
24159;SDS011;62385;41.594;23.808;2022-07-29T14:36:43;7.18;;;6.47;;
24159;SDS011;62385;41.594;23.808;2022-07-29T14:39:09;8.35;;;6.40;;
24159;SDS011;62385;41.594;23.808;2022-07-29T14:41:34;10.25;;;6.22;;
24159;SDS011;62385;41.594;23.808;2022-07-29T14:44:00;12.65;;;6.43;;
24159;SDS011;62385;41.594;23.808;2022-07-29T14:46:26;7.55;;;6.30;;
24159;SDS011;62385;41.594;23.808;2022-07-29T14:48:52;8.80;;;6.20;;
24159;SDS011;62385;41.594;23.808;2022-07-29T14:51:18;8.95;;;5.85;;
24159;SDS011;62385;41.594;23.808;2022-07-29T14:53:43;8.52;;;6.07;;
24159;SDS011;62385;41.594;23.808;2022-07-29T14:56:09;6.32;;;5.72;;
24159;SDS011;62385;41.594;23.808;2022-07-29T14:58:34;7.78;;;6.05;;
24159;SDS011;62385;41.594;23.808;2022-07-29T15:01:01;11.27;;;5.63;;
24159;SDS011;62385;41.594;23.808;2022-07-29T15:03:27;6.55;;;5.95;;
24159;SDS011;62385;41.594;23.808;2022-07-29T15:05:56;6.00;;;5.25;;
24159;SDS011;62385;41.594;23.808;2022-07-29T15:08:22;6.60;;;5.75;;
24159;SDS011;62385;41.594;23.808;2022-07-29T15:10:48;6.03;;;5.45;;
24159;SDS011;62385;41.594;23.808;2022-07-29T15:13:15;6.05;;;5.03;;
24159;SDS011;62385;41.594;23.808;2022-07-29T15:15:41;6.20;;;5.60;;
24159;SDS011;62385;41.594;23.808;2022-07-29T15:18:06;8.25;;;5.97;;
24159;SDS011;62385;41.594;23.808;2022-07-29T15:20:33;6.50;;;5.55;;
24159;SDS011;62385;41.594;23.808;2022-07-29T15:22:59;5.45;;;4.90;;
24159;SDS011;62385;41.594;23.808;2022-07-29T15:25:25;10.35;;;5.47;;
24159;SDS011;62385;41.594;23.808;2022-07-29T15:27:51;7.45;;;6.32;;
24159;SDS011;62385;41.594;23.808;2022-07-29T15:30:17;10.88;;;5.82;;
24159;SDS011;62385;41.594;23.808;2022-07-29T15:32:43;7.95;;;5.85;;
24159;SDS011;62385;41.594;23.808;2022-07-29T15:35:09;6.22;;;5.63;;
24159;SDS011;62385;41.594;23.808;2022-07-29T15:37:37;122.35;;;91.38;;
24159;SDS011;62385;41.594;23.808;2022-07-29T15:40:06;92.82;;;69.25;;
24159;SDS011;62385;41.594;23.808;2022-07-29T15:42:33;44.78;;;36.80;;
24159;SDS011;62385;41.594;23.808;2022-07-29T15:45:00;16.00;;;10.93;;
24159;SDS011;62385;41.594;23.808;2022-07-29T15:47:28;16.45;;;11.52;;
24159;SDS011;62385;41.594;23.808;2022-07-29T15:49:54;21.17;;;13.40;;
24159;SDS011;62385;41.594;23.808;2022-07-29T15:52:20;19.00;;;13.95;;